sensor_id;sensor_type;location;lat;lon;timestamp;pressure;altitude;pressure_sealevel;temperature;humidity
17309;BME280;8772;42.804;23.426;2023-07-08T00:00:15;73022.00;;;-140.58;100.00
17309;BME280;8772;42.804;23.426;2023-07-08T00:02:43;73013.78;;;-140.58;100.00
17309;BME280;8772;42.804;23.426;2023-07-08T00:05:14;73028.16;;;-140.58;100.00
17309;BME280;8772;42.804;23.426;2023-07-08T00:07:42;73024.03;;;-140.58;99.66
17309;BME280;8772;42.804;23.426;2023-07-08T00:10:12;73019.94;;;-140.58;99.67
17309;BME280;8772;42.804;23.426;2023-07-08T00:12:40;73017.91;;;-140.58;99.99
17309;BME280;8772;42.804;23.426;2023-07-08T00:15:08;73019.94;;;-140.58;99.91
17309;BME280;8772;42.804;23.426;2023-07-08T00:21:26;73019.94;;;-140.58;99.54
17309;BME280;8772;42.804;23.426;2023-07-08T00:24:13;73038.41;;;-140.58;100.00
17309;BME280;8772;42.804;23.426;2023-07-08T00:26:40;73036.34;;;-140.58;99.46
17309;BME280;8772;42.804;23.426;2023-07-08T00:29:08;73042.50;;;-140.58;99.50
17309;BME280;8772;42.804;23.426;2023-07-08T00:31:36;73042.50;;;-140.58;99.22
17309;BME280;8772;42.804;23.426;2023-07-08T00:34:02;73067.13;;;-140.58;100.00
17309;BME280;8772;42.804;23.426;2023-07-08T00:36:31;73079.41;;;-140.58;100.00
17309;BME280;8772;42.804;23.426;2023-07-08T00:38:57;73087.63;;;-140.58;100.00
17309;BME280;8772;42.804;23.426;2023-07-08T00:41:28;73097.88;;;-140.58;100.00
17309;BME280;8772;42.804;23.426;2023-07-08T00:43:58;73085.56;;;-140.58;100.00
17309;BME280;8772;42.804;23.426;2023-07-08T00:46:32;73099.94;;;-140.58;100.00
17309;BME280;8772;42.804;23.426;2023-07-08T00:49:09;73093.78;;;-140.58;100.00
17309;BME280;8772;42.804;23.426;2023-07-08T00:51:42;73091.72;;;-140.58;100.00
17309;BME280;8772;42.804;23.426;2023-07-08T00:54:10;73085.56;;;-140.58;100.00
17309;BME280;8772;42.804;23.426;2023-07-08T00:56:41;73087.63;;;-140.58;99.81
17309;BME280;8772;42.804;23.426;2023-07-08T00:59:11;73120.44;;;-140.58;100.00
17309;BME280;8772;42.804;23.426;2023-07-08T01:01:41;73132.75;;;-140.58;100.00
17309;BME280;8772;42.804;23.426;2023-07-08T01:07:33;73173.78;;;-140.58;100.00
17309;BME280;8772;42.804;23.426;2023-07-08T01:10:03;73165.56;;;-140.58;100.00
17309;BME280;8772;42.804;23.426;2023-07-08T01:12:35;73179.91;;;-140.58;100.00
17309;BME280;8772;42.804;23.426;2023-07-08T01:15:07;73184.03;;;-140.58;100.00
17309;BME280;8772;42.804;23.426;2023-07-08T01:17:35;73181.97;;;-140.58;100.00
17309;BME280;8772;42.804;23.426;2023-07-08T01:20:04;73167.63;;;-140.58;100.00
17309;BME280;8772;42.804;23.426;2023-07-08T01:22:34;73169.66;;;-140.58;100.00
17309;BME280;8772;42.804;23.426;2023-07-08T01:25:01;73173.78;;;-140.58;100.00
17309;BME280;8772;42.804;23.426;2023-07-08T01:27:30;73165.56;;;-140.58;100.00
17309;BME280;8772;42.804;23.426;2023-07-08T01:29:59;73155.31;;;-140.58;100.00
17309;BME280;8772;42.804;23.426;2023-07-08T01:32:27;73169.66;;;-140.58;100.00
17309;BME280;8772;42.804;23.426;2023-07-08T01:34:56;73155.31;;;-140.58;100.00
17309;BME280;8772;42.804;23.426;2023-07-08T01:37:29;73165.56;;;-140.58;100.00
17309;BME280;8772;42.804;23.426;2023-07-08T01:40:17;73165.56;;;-140.58;100.00
17309;BME280;8772;42.804;23.426;2023-07-08T01:42:44;73159.41;;;-140.58;100.00
17309;BME280;8772;42.804;23.426;2023-07-08T01:45:12;73159.41;;;-140.58;100.00
17309;BME280;8772;42.804;23.426;2023-07-08T01:47:40;73165.56;;;-140.58;100.00
17309;BME280;8772;42.804;23.426;2023-07-08T01:50:09;73165.56;;;-140.58;100.00
17309;BME280;8772;42.804;23.426;2023-07-08T01:52:37;73157.34;;;-140.58;100.00
17309;BME280;8772;42.804;23.426;2023-07-08T01:55:07;73165.56;;;-140.58;100.00
17309;BME280;8772;42.804;23.426;2023-07-08T01:57:34;73181.97;;;-140.58;100.00
17309;BME280;8772;42.804;23.426;2023-07-08T02:00:01;73173.78;;;-140.58;100.00
17309;BME280;8772;42.804;23.426;2023-07-08T02:02:28;73175.81;;;-140.58;100.00
17309;BME280;8772;42.804;23.426;2023-07-08T02:04:55;73190.19;;;-140.58;100.00
17309;BME280;8772;42.804;23.426;2023-07-08T02:07:22;73198.38;;;-140.58;100.00
17309;BME280;8772;42.804;23.426;2023-07-08T02:09:49;73181.97;;;-140.58;100.00
17309;BME280;8772;42.804;23.426;2023-07-08T02:12:17;73177.88;;;-140.58;100.00
17309;BME280;8772;42.804;23.426;2023-07-08T02:14:44;73188.13;;;-140.58;100.00
17309;BME280;8772;42.804;23.426;2023-07-08T02:17:11;73175.81;;;-140.58;100.00
17309;BME280;8772;42.804;23.426;2023-07-08T02:19:40;73188.13;;;-140.58;100.00
17309;BME280;8772;42.804;23.426;2023-07-08T02:22:07;73188.13;;;-140.58;100.00
17309;BME280;8772;42.804;23.426;2023-07-08T02:24:34;73200.44;;;-140.58;100.00
17309;BME280;8772;42.804;23.426;2023-07-08T02:27:01;73194.28;;;-140.58;100.00
17309;BME280;8772;42.804;23.426;2023-07-08T02:29:29;73186.06;;;-140.58;100.00
17309;BME280;8772;42.804;23.426;2023-07-08T02:31:57;73198.38;;;-140.58;100.00
17309;BME280;8772;42.804;23.426;2023-07-08T02:34:24;73190.19;;;-140.58;100.00
17309;BME280;8772;42.804;23.426;2023-07-08T02:36:51;73190.19;;;-140.58;100.00
17309;BME280;8772;42.804;23.426;2023-07-08T02:39:18;73202.47;;;-140.58;100.00
17309;BME280;8772;42.804;23.426;2023-07-08T02:41:44;73202.47;;;-140.58;100.00
17309;BME280;8772;42.804;23.426;2023-07-08T02:44:11;73202.47;;;-140.58;100.00
17309;BME280;8772;42.804;23.426;2023-07-08T02:46:40;73210.69;;;-140.58;100.00
17309;BME280;8772;42.804;23.426;2023-07-08T02:49:07;73235.31;;;-140.58;100.00
17309;BME280;8772;42.804;23.426;2023-07-08T02:51:33;73239.41;;;-140.58;100.00
17309;BME280;8772;42.804;23.426;2023-07-08T02:54:00;73266.06;;;-140.58;100.00
17309;BME280;8772;42.804;23.426;2023-07-08T02:56:27;73264.03;;;-140.58;100.00
17309;BME280;8772;42.804;23.426;2023-07-08T02:58:54;73257.88;;;-140.58;100.00
17309;BME280;8772;42.804;23.426;2023-07-08T03:01:21;73259.91;;;-140.58;100.00
17309;BME280;8772;42.804;23.426;2023-07-08T03:03:50;73270.16;;;-140.58;100.00
17309;BME280;8772;42.804;23.426;2023-07-08T03:06:19;73284.53;;;-140.58;100.00
17309;BME280;8772;42.804;23.426;2023-07-08T03:08:47;73292.72;;;-140.58;100.00
17309;BME280;8772;42.804;23.426;2023-07-08T03:11:14;73280.44;;;-140.58;100.00
17309;BME280;8772;42.804;23.426;2023-07-08T03:13:41;73300.94;;;-140.58;100.00
17309;BME280;8772;42.804;23.426;2023-07-08T03:16:08;73284.53;;;-140.58;100.00
17309;BME280;8772;42.804;23.426;2023-07-08T03:18:38;73282.47;;;-140.58;100.00
17309;BME280;8772;42.804;23.426;2023-07-08T03:21:14;73278.38;;;-140.58;100.00
17309;BME280;8772;42.804;23.426;2023-07-08T03:23:41;73286.56;;;-140.58;100.00
17309;BME280;8772;42.804;23.426;2023-07-08T03:26:13;73286.56;;;-140.58;100.00
17309;BME280;8772;42.804;23.426;2023-07-08T03:28:41;73300.94;;;-140.58;100.00
17309;BME280;8772;42.804;23.426;2023-07-08T03:31:09;73292.72;;;-140.58;100.00
17309;BME280;8772;42.804;23.426;2023-07-08T03:33:36;73284.53;;;-140.58;100.00
17309;BME280;8772;42.804;23.426;2023-07-08T03:36:07;73303.00;;;-140.58;100.00
17309;BME280;8772;42.804;23.426;2023-07-08T03:38:39;73309.13;;;-140.58;100.00
17309;BME280;8772;42.804;23.426;2023-07-08T03:41:06;73298.88;;;-140.58;100.00
17309;BME280;8772;42.804;23.426;2023-07-08T03:43:33;73300.94;;;-140.58;100.00
17309;BME280;8772;42.804;23.426;2023-07-08T03:46:00;73300.94;;;-140.58;100.00
17309;BME280;8772;42.804;23.426;2023-07-08T03:48:27;73292.72;;;-140.58;100.00
17309;BME280;8772;42.804;23.426;2023-07-08T03:50:53;73292.72;;;-140.58;100.00
17309;BME280;8772;42.804;23.426;2023-07-08T03:53:20;73284.53;;;-140.58;100.00
17309;BME280;8772;42.804;23.426;2023-07-08T03:55:49;73286.56;;;-140.58;100.00
17309;BME280;8772;42.804;23.426;2023-07-08T03:58:15;73305.03;;;-140.58;100.00
17309;BME280;8772;42.804;23.426;2023-07-08T04:00:42;73296.84;;;-140.58;100.00
17309;BME280;8772;42.804;23.426;2023-07-08T04:03:11;73296.84;;;-140.58;100.00
17309;BME280;8772;42.804;23.426;2023-07-08T04:05:38;73292.72;;;-140.58;100.00
17309;BME280;8772;42.804;23.426;2023-07-08T04:08:05;73296.84;;;-140.58;100.00
17309;BME280;8772;42.804;23.426;2023-07-08T04:10:32;73280.44;;;-140.58;100.00
17309;BME280;8772;42.804;23.426;2023-07-08T04:13:00;73276.31;;;-140.58;100.00
17309;BME280;8772;42.804;23.426;2023-07-08T04:15:27;73266.06;;;-140.58;100.00
17309;BME280;8772;42.804;23.426;2023-07-08T04:17:54;73264.03;;;-140.58;100.00
17309;BME280;8772;42.804;23.426;2023-07-08T04:20:23;73255.81;;;-140.58;100.00
17309;BME280;8772;42.804;23.426;2023-07-08T04:22:50;73249.66;;;-140.58;100.00
17309;BME280;8772;42.804;23.426;2023-07-08T04:25:18;73239.41;;;-140.58;100.00
17309;BME280;8772;42.804;23.426;2023-07-08T04:27:45;73255.81;;;-140.58;100.00
17309;BME280;8772;42.804;23.426;2023-07-08T04:30:21;73249.66;;;-140.58;100.00
17309;BME280;8772;42.804;23.426;2023-07-08T04:32:50;73229.16;;;-140.58;100.00
17309;BME280;8772;42.804;23.426;2023-07-08T04:35:17;73216.84;;;-140.58;100.00
17309;BME280;8772;42.804;23.426;2023-07-08T04:37:44;73223.00;;;-140.58;100.00
17309;BME280;8772;42.804;23.426;2023-07-08T04:40:17;73202.47;;;-140.58;100.00
17309;BME280;8772;42.804;23.426;2023-07-08T04:42:45;73186.06;;;-140.58;100.00
17309;BME280;8772;42.804;23.426;2023-07-08T04:45:16;73173.78;;;-140.58;100.00
17309;BME280;8772;42.804;23.426;2023-07-08T04:47:43;73163.50;;;-140.58;100.00
17309;BME280;8772;42.804;23.426;2023-07-08T04:50:12;73149.16;;;-140.58;100.00
17309;BME280;8772;42.804;23.426;2023-07-08T04:52:39;73132.75;;;-140.58;100.00
17309;BME280;8772;42.804;23.426;2023-07-08T04:55:07;73128.66;;;-140.58;100.00
17309;BME280;8772;42.804;23.426;2023-07-08T04:57:35;73112.25;;;-140.58;100.00
17309;BME280;8772;42.804;23.426;2023-07-08T05:00:03;73099.94;;;-140.58;100.00
17309;BME280;8772;42.804;23.426;2023-07-08T05:02:34;73077.38;;;-140.58;100.00
17309;BME280;8772;42.804;23.426;2023-07-08T05:05:01;73067.13;;;-140.58;100.00
17309;BME280;8772;42.804;23.426;2023-07-08T05:07:28;73052.75;;;-140.58;100.00
17309;BME280;8772;42.804;23.426;2023-07-08T05:09:55;73042.50;;;-140.58;100.00
17309;BME280;8772;42.804;23.426;2023-07-08T05:12:22;73030.19;;;-140.58;100.00
17309;BME280;8772;42.804;23.426;2023-07-08T05:14:50;73017.91;;;-140.58;100.00
17309;BME280;8772;42.804;23.426;2023-07-08T05:17:16;73001.47;;;-140.58;100.00
17309;BME280;8772;42.804;23.426;2023-07-08T05:19:45;72978.91;;;-140.58;99.87
17309;BME280;8772;42.804;23.426;2023-07-08T05:22:16;72966.63;;;-140.58;99.11
17309;BME280;8772;42.804;23.426;2023-07-08T05:24:43;72952.25;;;-140.58;99.54
17309;BME280;8772;42.804;23.426;2023-07-08T05:27:10;72931.75;;;-140.58;99.54
17309;BME280;8772;42.804;23.426;2023-07-08T05:29:39;72915.34;;;-140.58;95.94
17309;BME280;8772;42.804;23.426;2023-07-08T05:32:06;72894.84;;;-140.58;94.64
17309;BME280;8772;42.804;23.426;2023-07-08T05:34:34;72886.63;;;-140.58;90.24
17309;BME280;8772;42.804;23.426;2023-07-08T05:37:02;72882.53;;;-140.58;88.28
17309;BME280;8772;42.804;23.426;2023-07-08T05:39:30;72890.72;;;-140.58;87.46
17309;BME280;8772;42.804;23.426;2023-07-08T05:41:57;72894.84;;;-140.58;87.95
17309;BME280;8772;42.804;23.426;2023-07-08T05:44:24;72890.72;;;-140.58;90.04
17309;BME280;8772;42.804;23.426;2023-07-08T05:46:51;72894.84;;;-140.58;87.38
17309;BME280;8772;42.804;23.426;2023-07-08T05:49:18;72888.69;;;-140.58;85.18
17309;BME280;8772;42.804;23.426;2023-07-08T05:51:45;72886.63;;;-140.58;85.57
17309;BME280;8772;42.804;23.426;2023-07-08T05:54:13;72888.69;;;-140.58;85.31
17309;BME280;8772;42.804;23.426;2023-07-08T05:56:41;72876.38;;;-140.58;84.94
17309;BME280;8772;42.804;23.426;2023-07-08T05:59:08;72878.44;;;-140.58;82.07
17309;BME280;8772;42.804;23.426;2023-07-08T06:01:35;72874.31;;;-140.58;82.50
17309;BME280;8772;42.804;23.426;2023-07-08T06:04:02;72874.31;;;-140.58;83.75
17309;BME280;8772;42.804;23.426;2023-07-08T06:06:30;72868.19;;;-140.58;85.65
17309;BME280;8772;42.804;23.426;2023-07-08T06:08:57;72855.88;;;-140.58;84.18
17309;BME280;8772;42.804;23.426;2023-07-08T06:11:27;72837.41;;;-140.58;83.96
17309;BME280;8772;42.804;23.426;2023-07-08T06:13:54;72831.25;;;-140.58;79.71
17309;BME280;8772;42.804;23.426;2023-07-08T06:16:20;72827.16;;;-140.58;82.17
17309;BME280;8772;42.804;23.426;2023-07-08T06:18:47;72821.00;;;-140.58;82.55
17309;BME280;8772;42.804;23.426;2023-07-08T06:21:14;72816.91;;;-140.58;78.98
17309;BME280;8772;42.804;23.426;2023-07-08T06:23:41;72814.84;;;-140.58;80.89
17309;BME280;8772;42.804;23.426;2023-07-08T06:26:08;72812.81;;;-140.58;78.88
17309;BME280;8772;42.804;23.426;2023-07-08T06:28:36;72825.09;;;-140.58;78.48
17309;BME280;8772;42.804;23.426;2023-07-08T06:31:03;72816.91;;;-140.58;77.51
17309;BME280;8772;42.804;23.426;2023-07-08T06:33:30;72812.81;;;-140.58;77.58
17309;BME280;8772;42.804;23.426;2023-07-08T06:35:57;72800.50;;;-140.58;76.91
17309;BME280;8772;42.804;23.426;2023-07-08T06:38:24;72796.41;;;-140.58;77.42
17309;BME280;8772;42.804;23.426;2023-07-08T06:40:50;72800.50;;;-140.58;78.39
17309;BME280;8772;42.804;23.426;2023-07-08T06:43:17;72814.84;;;-140.58;76.94
17309;BME280;8772;42.804;23.426;2023-07-08T06:45:46;72818.94;;;-140.58;76.24
17309;BME280;8772;42.804;23.426;2023-07-08T06:48:13;72798.44;;;-140.58;76.24
17309;BME280;8772;42.804;23.426;2023-07-08T06:50:42;72784.09;;;-140.58;78.44
17309;BME280;8772;42.804;23.426;2023-07-08T06:53:09;72784.09;;;-140.58;78.17
17309;BME280;8772;42.804;23.426;2023-07-08T06:55:36;72771.78;;;-140.58;76.48
17309;BME280;8772;42.804;23.426;2023-07-08T06:58:03;72759.47;;;-140.58;75.70
17309;BME280;8772;42.804;23.426;2023-07-08T07:00:30;72759.47;;;-140.58;72.79
17309;BME280;8772;42.804;23.426;2023-07-08T07:02:58;72759.47;;;-140.58;72.94
17309;BME280;8772;42.804;23.426;2023-07-08T07:05:25;72738.97;;;-140.58;74.03
17309;BME280;8772;42.804;23.426;2023-07-08T07:07:52;72714.34;;;-140.58;74.84
17309;BME280;8772;42.804;23.426;2023-07-08T07:10:19;72710.25;;;-140.58;75.34
17309;BME280;8772;42.804;23.426;2023-07-08T07:12:46;72685.66;;;-140.58;73.12
17309;BME280;8772;42.804;23.426;2023-07-08T07:15:12;72687.69;;;-140.58;70.63
17309;BME280;8772;42.804;23.426;2023-07-08T07:17:39;72675.41;;;-140.58;69.01
17309;BME280;8772;42.804;23.426;2023-07-08T07:20:08;72663.09;;;-140.58;66.69
17309;BME280;8772;42.804;23.426;2023-07-08T07:22:35;72661.03;;;-140.58;69.48
17309;BME280;8772;42.804;23.426;2023-07-08T07:25:03;72665.16;;;-140.58;67.99
17309;BME280;8772;42.804;23.426;2023-07-08T07:27:30;72644.63;;;-140.58;65.77
17309;BME280;8772;42.804;23.426;2023-07-08T07:29:57;72640.53;;;-140.58;66.18
17309;BME280;8772;42.804;23.426;2023-07-08T07:32:25;72646.69;;;-140.58;65.01
17309;BME280;8772;42.804;23.426;2023-07-08T07:34:52;72652.84;;;-140.58;62.51
17309;BME280;8772;42.804;23.426;2023-07-08T07:37:21;72652.84;;;-140.58;66.95
17309;BME280;8772;42.804;23.426;2023-07-08T07:39:48;72644.63;;;-140.58;64.20
17309;BME280;8772;42.804;23.426;2023-07-08T07:42:16;72640.53;;;-140.58;65.20
17309;BME280;8772;42.804;23.426;2023-07-08T07:44:43;72644.63;;;-140.58;65.06
17309;BME280;8772;42.804;23.426;2023-07-08T07:47:11;72640.53;;;-140.58;65.10
17309;BME280;8772;42.804;23.426;2023-07-08T07:49:39;72636.44;;;-140.58;65.91
17309;BME280;8772;42.804;23.426;2023-07-08T07:52:07;72636.44;;;-140.58;65.05
17309;BME280;8772;42.804;23.426;2023-07-08T07:54:37;72636.44;;;-140.58;65.52
17309;BME280;8772;42.804;23.426;2023-07-08T07:57:05;72626.19;;;-140.58;64.75
17309;BME280;8772;42.804;23.426;2023-07-08T07:59:32;72615.94;;;-140.58;64.17
17309;BME280;8772;42.804;23.426;2023-07-08T08:01:59;72620.03;;;-140.58;61.82
17309;BME280;8772;42.804;23.426;2023-07-08T08:04:26;72620.03;;;-140.58;64.07
17309;BME280;8772;42.804;23.426;2023-07-08T08:06:52;72607.72;;;-140.58;61.68
17309;BME280;8772;42.804;23.426;2023-07-08T08:09:19;72628.22;;;-140.58;62.27
17309;BME280;8772;42.804;23.426;2023-07-08T08:11:48;72611.81;;;-140.58;64.69
17309;BME280;8772;42.804;23.426;2023-07-08T08:14:16;72607.72;;;-140.58;65.64
17309;BME280;8772;42.804;23.426;2023-07-08T08:16:44;72607.72;;;-140.58;62.58
17309;BME280;8772;42.804;23.426;2023-07-08T08:19:11;72617.97;;;-140.58;63.44
17309;BME280;8772;42.804;23.426;2023-07-08T08:21:37;72622.06;;;-140.58;61.52
17309;BME280;8772;42.804;23.426;2023-07-08T08:24:05;72632.34;;;-140.58;63.10
17309;BME280;8772;42.804;23.426;2023-07-08T08:26:32;72636.44;;;-140.58;63.86
17309;BME280;8772;42.804;23.426;2023-07-08T08:29:00;72603.63;;;-140.58;66.15
17309;BME280;8772;42.804;23.426;2023-07-08T08:31:27;72579.00;;;-140.58;66.41
17309;BME280;8772;42.804;23.426;2023-07-08T08:33:56;72552.34;;;-140.58;66.27
17309;BME280;8772;42.804;23.426;2023-07-08T08:36:23;72531.84;;;-140.58;66.23
17309;BME280;8772;42.804;23.426;2023-07-08T08:38:50;72523.66;;;-140.58;61.52
17309;BME280;8772;42.804;23.426;2023-07-08T08:41:19;72527.75;;;-140.58;60.82
17309;BME280;8772;42.804;23.426;2023-07-08T08:43:48;72527.75;;;-140.58;60.95
17309;BME280;8772;42.804;23.426;2023-07-08T08:46:24;72501.09;;;-140.58;61.22
17309;BME280;8772;42.804;23.426;2023-07-08T08:48:57;72480.59;;;-140.58;60.40
17309;BME280;8772;42.804;23.426;2023-07-08T08:51:27;72460.06;;;-140.58;61.60
17309;BME280;8772;42.804;23.426;2023-07-08T08:53:57;72443.66;;;-140.58;62.20
17309;BME280;8772;42.804;23.426;2023-07-08T08:56:27;72423.16;;;-140.58;59.77
17309;BME280;8772;42.804;23.426;2023-07-08T08:59:00;72400.59;;;-140.58;60.48
17309;BME280;8772;42.804;23.426;2023-07-08T09:01:30;72373.94;;;-140.58;61.84
17309;BME280;8772;42.804;23.426;2023-07-08T09:04:00;72349.34;;;-140.58;57.19
17309;BME280;8772;42.804;23.426;2023-07-08T09:06:31;72332.94;;;-140.58;56.64
17309;BME280;8772;42.804;23.426;2023-07-08T09:09:03;72312.44;;;-140.58;55.57
17309;BME280;8772;42.804;23.426;2023-07-08T09:11:42;72291.94;;;-140.58;54.73
17309;BME280;8772;42.804;23.426;2023-07-08T09:14:15;72271.41;;;-140.58;56.79
17309;BME280;8772;42.804;23.426;2023-07-08T09:16:50;72269.38;;;-140.58;54.23
17309;BME280;8772;42.804;23.426;2023-07-08T09:19:23;72275.53;;;-140.58;54.93
17309;BME280;8772;42.804;23.426;2023-07-08T09:21:56;72296.03;;;-140.58;53.13
17309;BME280;8772;42.804;23.426;2023-07-08T09:24:30;72269.38;;;-140.58;53.88
17309;BME280;8772;42.804;23.426;2023-07-08T09:27:00;72222.22;;;-140.58;54.90
17309;BME280;8772;42.804;23.426;2023-07-08T09:29:28;72187.34;;;-140.58;55.59
17309;BME280;8772;42.804;23.426;2023-07-08T09:31:57;72160.69;;;-140.58;53.07
17309;BME280;8772;42.804;23.426;2023-07-08T09:34:37;72148.38;;;-140.58;51.72
17309;BME280;8772;42.804;23.426;2023-07-08T09:37:21;72123.78;;;-140.58;51.91
17309;BME280;8772;42.804;23.426;2023-07-08T09:39:49;72113.53;;;-140.58;49.88
17309;BME280;8772;42.804;23.426;2023-07-08T09:42:18;72107.38;;;-140.58;52.70
17309;BME280;8772;42.804;23.426;2023-07-08T09:44:45;72082.78;;;-140.58;50.28
17309;BME280;8772;42.804;23.426;2023-07-08T09:47:24;72033.56;;;-140.58;53.24
17309;BME280;8772;42.804;23.426;2023-07-08T09:49:53;72033.56;;;-140.58;49.71
17309;BME280;8772;42.804;23.426;2023-07-08T09:52:21;72049.97;;;-140.58;47.48
17309;BME280;8772;42.804;23.426;2023-07-08T09:54:49;72060.22;;;-140.58;47.78
17309;BME280;8772;42.804;23.426;2023-07-08T09:57:23;72068.44;;;-140.58;47.23
17309;BME280;8772;42.804;23.426;2023-07-08T09:59:56;72080.72;;;-140.58;48.33
17309;BME280;8772;42.804;23.426;2023-07-08T10:02:29;72086.88;;;-140.58;49.26
17309;BME280;8772;42.804;23.426;2023-07-08T10:04:59;72062.28;;;-140.58;48.71
17309;BME280;8772;42.804;23.426;2023-07-08T10:07:28;72064.31;;;-140.58;50.58
17309;BME280;8772;42.804;23.426;2023-07-08T10:09:59;72037.66;;;-140.58;50.36
17309;BME280;8772;42.804;23.426;2023-07-08T10:12:26;72029.47;;;-140.58;49.52
17309;BME280;8772;42.804;23.426;2023-07-08T10:14:59;72072.53;;;-140.58;48.17
17309;BME280;8772;42.804;23.426;2023-07-08T10:17:29;72045.88;;;-140.58;47.50
17309;BME280;8772;42.804;23.426;2023-07-08T10:19:56;72052.03;;;-140.58;47.11
17309;BME280;8772;42.804;23.426;2023-07-08T10:22:33;72058.16;;;-140.58;49.09
17309;BME280;8772;42.804;23.426;2023-07-08T10:25:19;72076.63;;;-140.58;49.00
17309;BME280;8772;42.804;23.426;2023-07-08T10:27:53;72105.34;;;-140.58;48.84
17309;BME280;8772;42.804;23.426;2023-07-08T10:30:25;72105.34;;;-140.58;49.55
17309;BME280;8772;42.804;23.426;2023-07-08T10:33:12;72115.59;;;-140.58;48.41
17309;BME280;8772;42.804;23.426;2023-07-08T10:35:48;72181.19;;;-140.58;51.18
17309;BME280;8772;42.804;23.426;2023-07-08T10:38:34;72177.09;;;-140.58;51.95
17309;BME280;8772;42.804;23.426;2023-07-08T10:41:12;72162.75;;;-140.58;53.81
17309;BME280;8772;42.804;23.426;2023-07-08T10:43:53;72181.19;;;-140.58;53.30
17309;BME280;8772;42.804;23.426;2023-07-08T10:46:29;72173.00;;;-140.58;52.49
17309;BME280;8772;42.804;23.426;2023-07-08T10:49:19;72148.38;;;-140.58;54.20
17309;BME280;8772;42.804;23.426;2023-07-08T10:51:57;72127.88;;;-140.58;52.98
17309;BME280;8772;42.804;23.426;2023-07-08T10:54:55;72132.00;;;-140.58;51.38
17309;BME280;8772;42.804;23.426;2023-07-08T10:57:40;72136.09;;;-140.58;51.87
17309;BME280;8772;42.804;23.426;2023-07-08T11:00:18;72127.88;;;-140.58;51.79
17309;BME280;8772;42.804;23.426;2023-07-08T11:03:18;72121.72;;;-140.58;51.04
17309;BME280;8772;42.804;23.426;2023-07-08T11:05:58;72095.06;;;-140.58;51.82
17309;BME280;8772;42.804;23.426;2023-07-08T11:08:31;72103.28;;;-140.58;50.46
17309;BME280;8772;42.804;23.426;2023-07-08T11:11:01;72099.19;;;-140.58;50.81
17309;BME280;8772;42.804;23.426;2023-07-08T11:13:31;72121.72;;;-140.58;49.70
17309;BME280;8772;42.804;23.426;2023-07-08T11:16:04;72146.34;;;-140.58;51.23
17309;BME280;8772;42.804;23.426;2023-07-08T11:18:39;72150.44;;;-140.58;50.63
17309;BME280;8772;42.804;23.426;2023-07-08T11:21:10;72175.03;;;-140.58;51.66
17309;BME280;8772;42.804;23.426;2023-07-08T11:23:43;72158.66;;;-140.58;53.31
17309;BME280;8772;42.804;23.426;2023-07-08T11:26:30;72144.28;;;-140.58;56.19
17309;BME280;8772;42.804;23.426;2023-07-08T11:29:00;72166.84;;;-140.58;53.42
17309;BME280;8772;42.804;23.426;2023-07-08T11:31:29;72193.50;;;-140.58;51.37
17309;BME280;8772;42.804;23.426;2023-07-08T11:33:58;72201.69;;;-140.58;53.73
17309;BME280;8772;42.804;23.426;2023-07-08T11:36:27;72179.16;;;-140.58;57.32
17309;BME280;8772;42.804;23.426;2023-07-08T11:38:56;72216.06;;;-140.58;51.84
17309;BME280;8772;42.804;23.426;2023-07-08T11:41:25;72197.59;;;-140.58;53.90
17309;BME280;8772;42.804;23.426;2023-07-08T11:43:57;72209.91;;;-140.58;54.80
17309;BME280;8772;42.804;23.426;2023-07-08T11:46:26;72218.09;;;-140.58;53.91
17309;BME280;8772;42.804;23.426;2023-07-08T11:48:56;72226.31;;;-140.58;53.96
17309;BME280;8772;42.804;23.426;2023-07-08T11:51:30;72218.09;;;-140.58;56.26
17309;BME280;8772;42.804;23.426;2023-07-08T11:54:12;72244.75;;;-140.58;54.11
17309;BME280;8772;42.804;23.426;2023-07-08T11:56:48;72226.31;;;-140.58;56.35
17309;BME280;8772;42.804;23.426;2023-07-08T11:59:17;72232.47;;;-140.58;54.91
17309;BME280;8772;42.804;23.426;2023-07-08T12:01:52;72232.47;;;-140.58;58.97
17309;BME280;8772;42.804;23.426;2023-07-08T12:04:29;72220.16;;;-140.58;61.73
17309;BME280;8772;42.804;23.426;2023-07-08T12:07:10;72234.50;;;-140.58;57.13
17309;BME280;8772;42.804;23.426;2023-07-08T12:09:46;72257.06;;;-140.58;55.62
17309;BME280;8772;42.804;23.426;2023-07-08T12:12:25;72240.66;;;-140.58;56.56
17309;BME280;8772;42.804;23.426;2023-07-08T12:15:00;72283.72;;;-140.58;64.82
17309;BME280;8772;42.804;23.426;2023-07-08T12:17:28;72285.78;;;-140.58;62.95
17309;BME280;8772;42.804;23.426;2023-07-08T12:19:58;72255.00;;;-140.58;58.23
17309;BME280;8772;42.804;23.426;2023-07-08T12:22:30;72205.81;;;-140.58;57.53
17309;BME280;8772;42.804;23.426;2023-07-08T12:24:57;72193.50;;;-140.58;55.08
17309;BME280;8772;42.804;23.426;2023-07-08T12:27:29;72185.28;;;-140.58;57.00
17309;BME280;8772;42.804;23.426;2023-07-08T12:29:57;72156.59;;;-140.58;57.52
17309;BME280;8772;42.804;23.426;2023-07-08T12:32:24;72117.63;;;-140.58;56.98
17309;BME280;8772;42.804;23.426;2023-07-08T12:34:53;72078.69;;;-140.58;55.70
17309;BME280;8772;42.804;23.426;2023-07-08T12:37:20;72041.78;;;-140.58;54.28
17309;BME280;8772;42.804;23.426;2023-07-08T12:39:55;72017.16;;;-140.58;54.45
17309;BME280;8772;42.804;23.426;2023-07-08T12:42:25;71998.72;;;-140.58;51.54
17309;BME280;8772;42.804;23.426;2023-07-08T12:44:52;72006.91;;;-140.58;49.73
17309;BME280;8772;42.804;23.426;2023-07-08T12:47:20;71976.16;;;-140.58;51.98
17309;BME280;8772;42.804;23.426;2023-07-08T12:49:47;71965.91;;;-140.58;51.35
17309;BME280;8772;42.804;23.426;2023-07-08T12:52:21;71996.66;;;-140.58;48.96
17309;BME280;8772;42.804;23.426;2023-07-08T12:54:48;72025.38;;;-140.58;46.81